Terminal Aerodrome Forecast
Issued by NWS

Home | Current Version | Previous Version | Text Only | Print | Product List | Glossary On
Versions: 1 2 3 4 5 6 7 8 9 10 11 12 13 14 15 16
000
FTUS46 KMFR 271743
TAFLMT
TAF
KLMT 271743Z 2718/2818 18008KT P6SM SCT060
     FM272200 21015G22KT P6SM BKN060
     FM280200 30011KT P6SM VCSH SCT035 OVC050
     FM280800 28005KT P6SM OVC040
     FM281200 VRB03KT P6SM SCT040=

USA.gov is the U.S. government's official web portal to all federal, state and local government web resources and services.